^^
Saratoga-Weather Station Historical Data
Daily Summary for January 13, 2020 Units:  Metric    English   Both
Daily Weekly Monthly Yearly Custom
  High: Low: Average:
Temperature: 7.7 °C 0.1 °C 4.7 °C
Dew Point: 6.2 °C -0.8 °C 3 °C
Humidity: 96% 76% 89%
Wind Speed: 30.6km/h 0km/h 5.4km/h
Wind Gust: 41.8km/h - -
Wind- - SSW
Pressure: 1019.3 hPa 1000.0 hPa -
Precipitation: 5.3 mm    
Historical Graphs
 
 
Tabular Data for January 13, 2020
Time Temperature Dew Point Pressure Wind Wind Speed Wind Gust Humidity Rainfall Rate (Hourly) solar
00:00 4.2 °C 2.4 °C 1019.3 hPa Calm   8 km/h 88% 0.0 mm 0 W/m2
00:05 4.2 °C 2.4 °C 1019.3 hPa Calm   11.3 km/h 88% 0.0 mm 0 W/m2
00:10 4.2 °C 2.4 °C 1019.3 hPa WSW 1.4 km/h 4.8 km/h 88% 0.0 mm 0 W/m2
00:15 4.2 °C 2.4 °C 1019.3 hPa WNW 4.7 km/h 11.3 km/h 88% 0.0 mm 0 W/m2
00:20 4.2 °C 2.4 °C 1019.0 hPa WNW 1.4 km/h 3.2 km/h 88% 0.0 mm 0 W/m2
00:25 4.1 °C 2.3 °C 1019.0 hPa Calm   1.6 km/h 88% 0.0 mm 0 W/m2
00:30 4.1 °C 2.3 °C 1019.0 hPa NNE 3.2 km/h 3.2 km/h 88% 0.0 mm 0 W/m2
00:35 4.1 °C 2.3 °C 1019.0 hPa SSW 1.4 km/h 3.2 km/h 88% 0.0 mm 0 W/m2
00:40 4 °C 2.2 °C 1019.0 hPa NNW 1.4 km/h 3.2 km/h 88% 0.0 mm 0 W/m2
00:45 4 °C 2.2 °C 1019.0 hPa South 3.2 km/h 3.2 km/h 88% 0.0 mm 0 W/m2
00:50 3.9 °C 2.1 °C 1019.0 hPa NW 1.4 km/h 1.6 km/h 88% 0.0 mm 0 W/m2
00:55 3.9 °C 2.1 °C 1019.0 hPa NW 3.2 km/h 3.2 km/h 88% 0.0 mm 0 W/m2
01:00 3.8 °C 2.2 °C 1018.6 hPa Calm   1.6 km/h 89% 0.0 mm 0 W/m2
01:05 3.8 °C 2.2 °C 1018.6 hPa Calm   1.6 km/h 89% 0.0 mm 0 W/m2
01:10 3.8 °C 2.2 °C 1018.6 hPa NW 1.4 km/h 3.2 km/h 89% 0.0 mm 0 W/m2
01:15 3.7 °C 2.1 °C 1018.3 hPa Calm   1.6 km/h 89% 0.0 mm 0 W/m2
01:20 3.7 °C 2.1 °C 1018.3 hPa Calm   4.8 km/h 89% 0.0 mm 0 W/m2
01:25 3.7 °C 2.1 °C 1018.0 hPa Calm   4.8 km/h 89% 0.0 mm 0 W/m2
01:30 3.5 °C 1.9 °C 1018.0 hPa Calm   4.8 km/h 89% 0.0 mm 0 W/m2
01:35 3.3 °C 1.7 °C 1018.0 hPa Calm   3.2 km/h 89% 0.0 mm 0 W/m2
01:40 3 °C 1.2 °C 1018.0 hPa SE 3.2 km/h 4.8 km/h 88% 0.0 mm 0 W/m2
01:45 2.7 °C 1.1 °C 1017.6 hPa East 1.4 km/h 1.6 km/h 89% 0.0 mm 0 W/m2
01:50 2.6 °C 1.1 °C 1017.6 hPa Calm   4.8 km/h 90% 0.0 mm 0 W/m2
01:55 2.6 °C 1.3 °C 1017.6 hPa ESE 1.4 km/h 3.2 km/h 91% 0.0 mm 0 W/m2
02:00 2.9 °C 1.7 °C 1017.3 hPa NW 1.4 km/h 4.8 km/h 92% 0.0 mm 0 W/m2
02:05 3.2 °C 2 °C 1017.3 hPa NW 3.2 km/h 3.2 km/h 92% 0.0 mm 0 W/m2
02:10 3.3 °C 2 °C 1017.3 hPa WNW 1.4 km/h 4.8 km/h 91% 0.0 mm 0 W/m2
02:15 3.3 °C 2 °C 1017.3 hPa Calm   3.2 km/h 91% 0.0 mm 0 W/m2
02:20 3.2 °C 1.7 °C 1017.3 hPa Calm   1.6 km/h 90% 0.0 mm 0 W/m2
02:25 3.1 °C 1.6 °C 1016.9 hPa Calm     90% 0.0 mm 0 W/m2
02:30 2.8 °C 1.3 °C 1016.9 hPa SE 3.2 km/h 3.2 km/h 90% 0.0 mm 0 W/m2
02:35 2.4 °C 0.8 °C 1016.9 hPa SE 3.2 km/h 3.2 km/h 89% 0.0 mm 0 W/m2
02:40 2.1 °C 0.6 °C 1016.9 hPa SE 3.2 km/h 3.2 km/h 90% 0.0 mm 0 W/m2
02:45 1.8 °C 0.3 °C 1016.9 hPa SE 1.4 km/h 1.6 km/h 90% 0.0 mm 0 W/m2
02:50 1.6 °C 0.3 °C 1016.6 hPa SE 1.4 km/h 3.2 km/h 91% 0.0 mm 0 W/m2
02:55 1.5 °C 0.3 °C 1016.6 hPa Calm   1.6 km/h 92% 0.0 mm 0 W/m2
03:01 1.4 °C 0.2 °C 1016.6 hPa Calm     92% 0.0 mm 0 W/m2
03:06 1.3 °C 0.1 °C 1016.6 hPa Calm     92% 0.0 mm 0 W/m2
03:11 1.1 °C -0.1 °C 1016.3 hPa Calm     92% 0.0 mm 0 W/m2
03:16 1 °C -0.2 °C 1016.3 hPa Calm     92% 0.0 mm 0 W/m2
03:21 0.9 °C -0.1 °C 1016.3 hPa Calm     93% 0.0 mm 0 W/m2
03:26 0.8 °C -0.2 °C 1016.3 hPa Calm     93% 0.0 mm 0 W/m2
03:31 0.7 °C -0.3 °C 1016.3 hPa Calm     93% 0.0 mm 0 W/m2
03:36 0.6 °C -0.4 °C 1016.3 hPa Calm     93% 0.0 mm 0 W/m2
03:41 0.6 °C -0.4 °C 1016.3 hPa Calm     93% 0.0 mm 0 W/m2
03:46 0.5 °C -0.5 °C 1015.9 hPa Calm     93% 0.0 mm 0 W/m2
03:51 0.4 °C -0.6 °C 1015.9 hPa Calm     93% 0.0 mm 0 W/m2
03:56 0.4 °C -0.5 °C 1015.9 hPa Calm     94% 0.0 mm 0 W/m2
04:01 0.4 °C -0.5 °C 1015.6 hPa Calm     94% 0.0 mm 0 W/m2
04:06 0.3 °C -0.6 °C 1015.6 hPa Calm     94% 0.0 mm 0 W/m2
04:11 0.3 °C -0.6 °C 1015.6 hPa Calm     94% 0.0 mm 0 W/m2
04:16 0.3 °C -0.6 °C 1015.2 hPa Calm     94% 0.0 mm 0 W/m2
04:21 0.2 °C -0.7 °C 1015.2 hPa Calm     94% 0.0 mm 0 W/m2
04:26 0.2 °C -0.7 °C 1015.2 hPa Calm     94% 0.0 mm 0 W/m2
04:31 0.2 °C -0.7 °C 1015.2 hPa Calm     94% 0.0 mm 0 W/m2
04:36 0.2 °C -0.7 °C 1015.2 hPa Calm     94% 0.0 mm 0 W/m2
04:41 0.1 °C -0.8 °C 1015.2 hPa Calm     94% 0.0 mm 0 W/m2
04:46 0.1 °C -0.8 °C 1014.9 hPa Calm     94% 0.0 mm 0 W/m2
04:52 0.1 °C -0.6 °C 1014.9 hPa Calm     95% 0.0 mm 0 W/m2
04:57 0.2 °C -0.5 °C 1014.9 hPa Calm     95% 0.0 mm 0 W/m2
05:02 0.2 °C -0.5 °C 1014.9 hPa Calm     95% 0.0 mm 0 W/m2
05:07 0.2 °C -0.5 °C 1014.6 hPa Calm     95% 0.0 mm 0 W/m2
05:12 0.2 °C -0.5 °C 1014.9 hPa Calm   1.6 km/h 95% 0.0 mm 0 W/m2
05:17 0.1 °C -0.6 °C 1014.6 hPa Calm     95% 0.0 mm 0 W/m2
05:22 0.1 °C -0.6 °C 1014.6 hPa Calm     95% 0.0 mm 0 W/m2
05:27 0.1 °C -0.6 °C 1014.6 hPa Calm     95% 0.0 mm 0 W/m2
05:33 0.1 °C -0.6 °C 1014.6 hPa Calm     95% 0.0 mm 0 W/m2
05:38 0.1 °C -0.6 °C 1014.6 hPa Calm     95% 0.0 mm 0 W/m2
05:43 0.1 °C -0.6 °C 1014.6 hPa Calm     95% 0.0 mm 0 W/m2
05:48 0.2 °C -0.4 °C 1014.2 hPa Calm     96% 0.0 mm 0 W/m2
05:53 0.3 °C -0.3 °C 1014.2 hPa Calm     96% 0.0 mm 0 W/m2
05:58 0.3 °C -0.3 °C 1013.9 hPa Calm     96% 0.0 mm 0 W/m2
06:03 0.3 °C -0.3 °C 1013.9 hPa Calm     96% 0.0 mm 0 W/m2
06:08 0.3 °C -0.4 °C 1013.9 hPa Calm     95% 0.0 mm 0 W/m2
06:13 0.4 °C -0.2 °C 1013.5 hPa Calm     96% 0.0 mm 0 W/m2
06:18 0.4 °C -0.2 °C 1013.5 hPa Calm     96% 0.0 mm 0 W/m2
06:23 0.4 °C -0.2 °C 1013.5 hPa Calm     96% 0.0 mm 0 W/m2
06:28 0.6 °C 0 °C 1013.2 hPa Calm   3.2 km/h 96% 0.0 mm 0 W/m2
06:33 0.7 °C 0.1 °C 1012.9 hPa Calm   1.6 km/h 96% 0.0 mm 0 W/m2
06:38 0.8 °C 0.2 °C 1012.9 hPa Calm     96% 0.0 mm 0 W/m2
06:43 0.8 °C 0.2 °C 1012.9 hPa Calm     96% 0.0 mm 0 W/m2
06:48 0.8 °C 0.2 °C 1012.9 hPa Calm     96% 0.0 mm 0 W/m2
06:53 0.8 °C 0.2 °C 1012.5 hPa Calm     96% 0.0 mm 0 W/m2
06:58 0.7 °C 0.1 °C 1012.5 hPa Calm     96% 0.0 mm 0 W/m2
07:03 0.7 °C 0.1 °C 1012.5 hPa Calm     96% 0.0 mm 0 W/m2
07:08 0.7 °C 0.1 °C 1012.2 hPa Calm     96% 0.0 mm 0 W/m2
07:13 0.7 °C 0.1 °C 1011.9 hPa NNE 1.4 km/h 3.2 km/h 96% 0.0 mm 0 W/m2
07:18 0.7 °C 0.1 °C 1011.9 hPa East 3.2 km/h 3.2 km/h 96% 0.0 mm 0 W/m2
07:23 0.8 °C 0.2 °C 1011.9 hPa NE 3.2 km/h 3.2 km/h 96% 0.0 mm 0 W/m2
07:28 1.1 °C 0.5 °C 1011.5 hPa NE 6.4 km/h 6.4 km/h 96% 0.0 mm 0 W/m2
07:33 1.4 °C 0.8 °C 1011.5 hPa NE 1.4 km/h 4.8 km/h 96% 0.0 mm 0 W/m2
07:39 1.6 °C 1 °C 1011.5 hPa NNE 4.7 km/h 6.4 km/h 96% 0.0 mm 0 W/m2
07:44 1.6 °C 1 °C 1011.2 hPa North 1.4 km/h 3.2 km/h 96% 0.0 mm 0 W/m2
07:49 1.7 °C 1.1 °C 1010.8 hPa NNE 1.4 km/h 3.2 km/h 96% 0.0 mm 0 W/m2
07:54 1.8 °C 1.2 °C 1010.8 hPa ENE 4.7 km/h 6.4 km/h 96% 0.0 mm 0 W/m2
07:59 1.9 °C 1.2 °C 1010.8 hPa ENE 4.7 km/h 6.4 km/h 95% 0.0 mm 5 W/m2
08:04 1.9 °C 1.2 °C 1010.8 hPa NE 1.4 km/h 3.2 km/h 95% 0.0 mm 9 W/m2
08:09 2 °C 1.3 °C 1010.5 hPa ENE 4.7 km/h 6.4 km/h 95% 0.0 mm 11 W/m2
08:14 2.2 °C 1.5 °C 1010.5 hPa East 6.4 km/h 12.9 km/h 95% 0.0 mm 12 W/m2
08:19 2.4 °C 1.5 °C 1010.2 hPa ENE 9.7 km/h 11.3 km/h 94% 0.0 mm 14 W/m2
08:24 2.6 °C 1.6 °C 1010.2 hPa ENE 4.7 km/h 16.1 km/h 93% 0.0 mm 19 W/m2
08:29 2.7 °C 1.5 °C 1010.2 hPa East 4.7 km/h 8 km/h 92% 0.0 mm 23 W/m2
08:34 2.7 °C 1.4 °C 1010.2 hPa East 4.7 km/h 16.1 km/h 91% 0.0 mm 25 W/m2
08:39 2.8 °C 1.5 °C 1009.8 hPa ENE 14.3 km/h 14.5 km/h 91% 0.0 mm 21 W/m2
08:44 2.8 °C 1.3 °C 1009.8 hPa ESE 6.4 km/h 8 km/h 90% 0.0 mm 26 W/m2
08:49 2.8 °C 1.3 °C 1009.8 hPa ENE 4.7 km/h 12.9 km/h 90% 0.0 mm 44 W/m2
08:54 2.9 °C 1.3 °C 1009.5 hPa ENE 3.2 km/h 9.7 km/h 89% 0.0 mm 46 W/m2
08:59 2.9 °C 1.3 °C 1009.1 hPa NE 7.9 km/h 22.5 km/h 89% 0.0 mm 53 W/m2
09:04 3 °C 1.2 °C 1008.8 hPa ESE 16.3 km/h 16.1 km/h 88% 0.0 mm 72 W/m2
09:09 3 °C 1.2 °C 1008.8 hPa East 13 km/h 20.9 km/h 88% 0.0 mm 67 W/m2
09:14 3.1 °C 1.3 °C 1008.8 hPa ENE 6.4 km/h 17.7 km/h 88% 0.0 mm 67 W/m2
09:19 3.2 °C 1.4 °C 1008.5 hPa ESE 11.1 km/h 19.3 km/h 88% 0.0 mm 67 W/m2
09:24 3.2 °C 1.2 °C 1008.5 hPa SSE 9.7 km/h 14.5 km/h 87% 0.0 mm 54 W/m2
09:29 3.3 °C 1.3 °C 1008.1 hPa NE 4.7 km/h 17.7 km/h 87% 0.0 mm 72 W/m2
09:34 3.3 °C 1.3 °C 1008.1 hPa ESE 14.3 km/h 17.7 km/h 87% 0.0 mm 86 W/m2
09:39 3.4 °C 1.3 °C 1008.1 hPa NE 4.7 km/h 9.7 km/h 86% 0.0 mm 79 W/m2
09:44 3.6 °C 1.5 °C 1007.8 hPa ESE 4.7 km/h 11.3 km/h 86% 0.0 mm 77 W/m2
09:49 3.7 °C 1.4 °C 1007.5 hPa ESE 3.2 km/h 12.9 km/h 85% 0.0 mm 54 W/m2
09:54 3.7 °C 1.2 °C 1007.5 hPa East 4.7 km/h 11.3 km/h 84% 0.0 mm 49 W/m2
09:59 3.8 °C 1.3 °C 1007.1 hPa NE 4.7 km/h 12.9 km/h 84% 0.0 mm 42 W/m2
10:04 3.8 °C 1.3 °C 1007.1 hPa NE 1.4 km/h 8 km/h 84% 0.0 mm 58 W/m2
10:09 3.9 °C 1.4 °C 1007.1 hPa ENE 1.4 km/h 3.2 km/h 84% 0.0 mm 49 W/m2
10:14 3.9 °C 1.3 °C 1007.1 hPa NNE 1.4 km/h 3.2 km/h 83% 0.0 mm 28 W/m2
10:19 4 °C 1.4 °C 1007.1 hPa NNW 1.4 km/h 3.2 km/h 83% 0.0 mm 14 W/m2
10:24 4.1 °C 1.3 °C 1007.1 hPa Calm   4.8 km/h 82% 0.0 mm 23 W/m2
10:29 4.2 °C 1.2 °C 1006.8 hPa NNE 3.2 km/h 8 km/h 81% 0.0 mm 46 W/m2
10:34 4.4 °C 1.3 °C 1006.8 hPa NE 4.7 km/h 8 km/h 80% 0.0 mm 47 W/m2
10:39 4.6 °C 1.3 °C 1006.4 hPa Calm   3.2 km/h 79% 0.0 mm 19 W/m2
10:44 4.7 °C 1.2 °C 1006.4 hPa NE 3.2 km/h 4.8 km/h 78% 0.0 mm 26 W/m2
10:49 4.9 °C 1.2 °C 1006.1 hPa NE 4.7 km/h 17.7 km/h 77% 0.0 mm 54 W/m2
10:54 5.1 °C 1.4 °C 1005.8 hPa ENE 6.4 km/h 8 km/h 77% 0.0 mm 51 W/m2
10:59 5.2 °C 1.3 °C 1005.8 hPa East 14.3 km/h 16.1 km/h 76% 0.0 mm 42 W/m2
11:04 5.3 °C 1.4 °C 1005.4 hPa ESE 3.2 km/h 12.9 km/h 76% 0.0 mm 54 W/m2
11:09 5.4 °C 1.7 °C 1005.1 hPa East 4.7 km/h 11.3 km/h 77% 0.0 mm 53 W/m2
11:14 5.6 °C 1.7 °C 1005.1 hPa NE 4.7 km/h 8 km/h 76% 0.0 mm 51 W/m2
11:19 5.5 °C 1.8 °C 1005.1 hPa ESE 9.7 km/h 14.5 km/h 77% 0.0 mm 40 W/m2
11:24 5.3 °C 2 °C 1005.1 hPa ESE 3.2 km/h 14.5 km/h 79% 0.0 mm 33 W/m2
11:29 5.2 °C 1.9 °C 1004.7 hPa ENE 4.7 km/h 8 km/h 79% 0.0 mm 33 W/m2
11:34 5.2 °C 1.9 °C 1004.7 hPa ENE 4.7 km/h 14.5 km/h 79% 0.0 mm 33 W/m2
11:39 5.2 °C 1.9 °C 1004.7 hPa NE 6.4 km/h 6.4 km/h 79% 0.0 mm 28 W/m2
11:44 5.4 °C 2.1 °C 1004.4 hPa ENE 6.4 km/h 22.5 km/h 79% 0.0 mm 46 W/m2
11:49 5.6 °C 2.2 °C 1004.4 hPa East 16.3 km/h 19.3 km/h 79% 0.0 mm 39 W/m2
11:54 5.8 °C 2.4 °C 1004.1 hPa NE 16.3 km/h 22.5 km/h 79% 0.0 mm 25 W/m2
11:59 5.9 °C 2.7 °C 1004.1 hPa North 4.7 km/h 4.8 km/h 80% 0.0 mm 37 W/m2
12:04 6 °C 2.8 °C 1003.7 hPa NE 9.7 km/h 14.5 km/h 80% 0.0 mm 49 W/m2
12:09 6.1 °C 3.1 °C 1003.4 hPa East 4.7 km/h 11.3 km/h 81% 0.0 mm 49 W/m2
12:14 6.2 °C 3.2 °C 1003.4 hPa NE 1.4 km/h 14.5 km/h 81% 0.0 mm 40 W/m2
12:19 6.3 °C 3.3 °C 1003.0 hPa NNE 4.7 km/h 16.1 km/h 81% 0.0 mm 72 W/m2
12:24 6.3 °C 3.5 °C 1002.7 hPa NE 11.1 km/h 14.5 km/h 82% 0.0 mm 46 W/m2
12:29 6.4 °C 3.4 °C 1002.4 hPa ENE 3.2 km/h 20.9 km/h 81% 0.0 mm 47 W/m2
12:34 6.4 °C 3.6 °C 1002.4 hPa NW 3.2 km/h 8 km/h 82% 0.0 mm 47 W/m2
12:39 6.5 °C 3.6 °C 1002.0 hPa West 9.7 km/h 19.3 km/h 82% 0.0 mm 44 W/m2
12:44 6.6 °C 3.7 °C 1002.4 hPa NE 7.9 km/h 8 km/h 82% 0.0 mm 100 W/m2
12:50 6.7 °C 3.8 °C 1003.0 hPa North 13 km/h 14.5 km/h 82% 0.0 mm 40 W/m2
12:55 6.6 °C 4.1 °C 1003.0 hPa WSW 7.9 km/h 11.3 km/h 84% 0.5 mm 23 W/m2
13:00 6.4 °C 4.1 °C 1003.0 hPa NNW 7.9 km/h 9.7 km/h 85% 0.8 mm 32 W/m2
13:05 6.3 °C 4.1 °C 1003.4 hPa NNW 3.2 km/h 11.3 km/h 86% 1.5 mm 47 W/m2
13:10 6.2 °C 4.2 °C 1003.7 hPa NW 6.4 km/h 11.3 km/h 87% 1.5 mm 37 W/m2
13:15 6.1 °C 4.4 °C 1003.0 hPa WSW 4.7 km/h 4.8 km/h 89% 2.3 mm 81 W/m2
13:20 6 °C 4.3 °C 1003.0 hPa NNW 7.9 km/h 12.9 km/h 89% 2.3 mm 72 W/m2
13:25 5.9 °C 4.4 °C 1003.0 hPa WNW 3.2 km/h 8 km/h 90% 2.8 mm 97 W/m2
13:30 5.9 °C 4.4 °C 1003.0 hPa WNW 4.7 km/h 8 km/h 90% 2.8 mm 97 W/m2
13:35 5.9 °C 4.5 °C 1003.0 hPa East 3.2 km/h 4.8 km/h 91% 2.8 mm 79 W/m2
13:40 6 °C 4.6 °C 1003.0 hPa East 1.4 km/h 3.2 km/h 91% 2.8 mm 46 W/m2
13:45 6 °C 4.6 °C 1002.7 hPa ENE 6.4 km/h 6.4 km/h 91% 2.8 mm 37 W/m2
13:50 6.1 °C 4.7 °C 1003.0 hPa West 11.1 km/h 12.9 km/h 91% 3.0 mm 56 W/m2
13:55 6.2 °C 4.8 °C 1002.7 hPa NE 6.4 km/h 8 km/h 91% 2.3 mm 49 W/m2
14:00 6.4 °C 4.9 °C 1002.0 hPa South 1.4 km/h 12.9 km/h 90% 2.3 mm 81 W/m2
14:05 6.5 °C 4.8 °C 1002.4 hPa SW 11.1 km/h 19.3 km/h 89% 1.5 mm 65 W/m2
14:10 6.6 °C 4.8 °C 1001.7 hPa WNW 7.9 km/h 12.9 km/h 88% 1.5 mm 100 W/m2
14:15 6.7 °C 4.9 °C 1001.4 hPa West 4.7 km/h 9.7 km/h 88% 0.8 mm 76 W/m2
14:20 6.6 °C 4.6 °C 1001.7 hPa WNW 3.2 km/h 6.4 km/h 87% 0.5 mm 19 W/m2
14:25 6.6 °C 4.6 °C 1002.0 hPa NNW 4.7 km/h 6.4 km/h 87% 0.2 mm 12 W/m2
14:30 6.5 °C 4.7 °C 1002.0 hPa WSW 1.4 km/h 8 km/h 88% 0.2 mm 7 W/m2
14:35 6.5 °C 4.7 °C 1001.4 hPa Calm   11.3 km/h 88% 0.2 mm 5 W/m2
14:40 6.5 °C 4.7 °C 1001.7 hPa NNW 6.4 km/h 6.4 km/h 88% 0.2 mm 7 W/m2
14:45 6.4 °C 4.7 °C 1000.7 hPa NE 4.7 km/h 4.8 km/h 89% 0.2 mm 12 W/m2
14:50 6.4 °C 4.7 °C 1001.4 hPa WNW 4.7 km/h 6.4 km/h 89% 0.0 mm 14 W/m2
14:55 6.4 °C 4.7 °C 1001.0 hPa Calm   6.4 km/h 89% 0.0 mm 28 W/m2
15:00 6.4 °C 4.9 °C 1001.0 hPa NW 1.4 km/h 4.8 km/h 90% 0.0 mm 51 W/m2
15:05 6.5 °C 4.8 °C 1001.4 hPa North 1.4 km/h 1.6 km/h 89% 0.0 mm 42 W/m2
15:10 6.5 °C 4.8 °C 1001.4 hPa NNW 1.4 km/h 9.7 km/h 89% 0.0 mm 51 W/m2
15:15 6.6 °C 4.8 °C 1001.0 hPa WNW 1.4 km/h 6.4 km/h 88% 0.0 mm 125 W/m2
15:20 6.6 °C 4.6 °C 1000.7 hPa West 17.7 km/h 17.7 km/h 87% 0.0 mm 97 W/m2
15:25 6.7 °C 4.5 °C 1001.0 hPa ENE 6.4 km/h 8 km/h 86% 0.0 mm 139 W/m2
15:30 6.8 °C 4.5 °C 1001.0 hPa NNW 7.9 km/h 14.5 km/h 85% 0.0 mm 98 W/m2
15:36 6.9 °C 4.6 °C 1000.7 hPa WNW 7.9 km/h 12.9 km/h 85% 0.0 mm 74 W/m2
15:41 7 °C 4.7 °C 1001.0 hPa WNW 1.4 km/h 16.1 km/h 85% 0.0 mm 63 W/m2
15:46 7 °C 4.7 °C 1001.0 hPa SW 6.4 km/h 14.5 km/h 85% 0.0 mm 51 W/m2
15:51 7 °C 4.7 °C 1001.0 hPa NW 4.7 km/h 11.3 km/h 85% 0.0 mm 54 W/m2
15:56 7.1 °C 4.6 °C 1001.0 hPa WSW 7.9 km/h 17.7 km/h 84% 0.0 mm 54 W/m2
16:01 7.1 °C 4.6 °C 1001.0 hPa West 11.1 km/h 17.7 km/h 84% 0.0 mm 39 W/m2
16:06 7.1 °C 4.6 °C 1000.7 hPa South 3.2 km/h 6.4 km/h 84% 0.0 mm 49 W/m2
16:11 7 °C 4.7 °C 1000.7 hPa NW 9.7 km/h 16.1 km/h 85% 0.0 mm 62 W/m2
16:16 7 °C 4.7 °C 1000.7 hPa SW 11.1 km/h 12.9 km/h 85% 0.0 mm 49 W/m2
16:21 7.1 °C 4.7 °C 1000.7 hPa South 4.7 km/h 6.4 km/h 85% 0.0 mm 35 W/m2
16:26 7.1 °C 4.7 °C 1000.7 hPa North 4.7 km/h 16.1 km/h 85% 0.0 mm 54 W/m2
16:31 7.1 °C 4.7 °C 1001.0 hPa NE 1.4 km/h 14.5 km/h 85% 0.0 mm 42 W/m2
16:36 7.2 °C 5 °C 1001.0 hPa North 4.7 km/h 8 km/h 86% 0.0 mm 62 W/m2
16:41 7.2 °C 5 °C 1001.0 hPa NW 3.2 km/h 14.5 km/h 86% 0.0 mm 32 W/m2
16:46 7.2 °C 5 °C 1001.0 hPa NNE 4.7 km/h 8 km/h 86% 0.0 mm 19 W/m2
16:51 7.2 °C 5 °C 1000.7 hPa West 4.7 km/h 12.9 km/h 86% 0.0 mm 23 W/m2
16:56 7.1 °C 5.1 °C 1000.7 hPa South 3.2 km/h 14.5 km/h 87% 0.0 mm 18 W/m2
17:01 7.1 °C 5.1 °C 1000.7 hPa NW 7.9 km/h 8 km/h 87% 0.0 mm 19 W/m2
17:06 7.1 °C 5.1 °C 1000.7 hPa WNW 4.7 km/h 9.7 km/h 87% 0.0 mm 16 W/m2
17:11 7.1 °C 5.2 °C 1000.3 hPa NNE 4.7 km/h 4.8 km/h 88% 0.0 mm 9 W/m2
17:16 7.1 °C 5.2 °C 1000.3 hPa NW 6.4 km/h 6.4 km/h 88% 0.0 mm 21 W/m2
17:21 7.1 °C 5.2 °C 1000.3 hPa WNW 4.7 km/h 8 km/h 88% 0.0 mm 18 W/m2
17:26 7.1 °C 5.2 °C 1000.0 hPa NW 7.9 km/h 8 km/h 88% 0.0 mm 14 W/m2
17:31 7.2 °C 5.3 °C 1000.0 hPa NNW 3.2 km/h 4.8 km/h 88% 0.0 mm 12 W/m2
17:36 7.2 °C 5.3 °C 1000.3 hPa North 4.7 km/h 6.4 km/h 88% 0.0 mm 7 W/m2
17:41 7.2 °C 5.3 °C 1000.3 hPa ENE 3.2 km/h 6.4 km/h 88% 0.0 mm 5 W/m2
17:46 7.2 °C 5.3 °C 1000.3 hPa NNE 3.2 km/h 6.4 km/h 88% 0.0 mm 0 W/m2
17:51 7.2 °C 5.5 °C 1000.0 hPa NNW 4.7 km/h 9.7 km/h 89% 0.2 mm 0 W/m2
17:56 7.2 °C 5.5 °C 1000.3 hPa NE 1.4 km/h 6.4 km/h 89% 0.2 mm 0 W/m2
18:01 7.2 °C 5.5 °C 1000.3 hPa NNW 3.2 km/h 6.4 km/h 89% 0.5 mm 0 W/m2
18:06 7.1 °C 5.6 °C 1000.0 hPa West 3.2 km/h 12.9 km/h 90% 0.5 mm 0 W/m2
18:11 7.1 °C 5.6 °C 1000.3 hPa East 1.4 km/h 3.2 km/h 90% 0.5 mm 0 W/m2
18:16 7.1 °C 5.6 °C 1000.3 hPa NW 4.7 km/h 12.9 km/h 90% 0.5 mm 0 W/m2
18:21 7.2 °C 5.7 °C 1000.3 hPa North 6.4 km/h 12.9 km/h 90% 0.5 mm 0 W/m2
18:26 7.2 °C 5.7 °C 1000.3 hPa NNW 4.7 km/h 6.4 km/h 90% 0.5 mm 0 W/m2
18:31 7.2 °C 5.8 °C 1000.3 hPa ENE 3.2 km/h 12.9 km/h 91% 0.5 mm 0 W/m2
18:37 7.2 °C 5.8 °C 1000.3 hPa North 4.7 km/h 6.4 km/h 91% 0.8 mm 0 W/m2
18:42 7.1 °C 5.7 °C 1000.3 hPa North 3.2 km/h 6.4 km/h 91% 0.8 mm 0 W/m2
18:47 7.2 °C 6 °C 1000.3 hPa WNW 7.9 km/h 8 km/h 92% 0.5 mm 0 W/m2
18:52 7.1 °C 5.9 °C 1000.3 hPa ESE 9.7 km/h 9.7 km/h 92% 0.8 mm 0 W/m2
18:57 7.2 °C 6 °C 1000.3 hPa NW 7.9 km/h 16.1 km/h 92% 0.8 mm 0 W/m2
19:02 7.2 °C 6 °C 1000.3 hPa NW 6.4 km/h 16.1 km/h 92% 0.5 mm 0 W/m2
19:07 7.2 °C 6 °C 1000.3 hPa NE 3.2 km/h 8 km/h 92% 0.5 mm 0 W/m2
19:12 7.2 °C 6 °C 1000.3 hPa NNW 6.4 km/h 14.5 km/h 92% 0.5 mm 0 W/m2
19:17 7.3 °C 6.1 °C 1000.3 hPa WSW 6.4 km/h 6.4 km/h 92% 0.8 mm 0 W/m2
19:22 7.3 °C 6.1 °C 1000.7 hPa NW 3.2 km/h 11.3 km/h 92% 0.5 mm 0 W/m2
19:27 7.4 °C 6 °C 1000.7 hPa West 3.2 km/h 14.5 km/h 91% 0.8 mm 0 W/m2
19:32 7.6 °C 6.2 °C 1001.0 hPa South 7.9 km/h 16.1 km/h 91% 0.8 mm 0 W/m2
19:37 7.6 °C 6.1 °C 1001.4 hPa WNW 19.5 km/h 24.1 km/h 90% 0.5 mm 0 W/m2
19:42 7.5 °C 6 °C 1001.4 hPa SSW 1.4 km/h 24.1 km/h 90% 0.8 mm 0 W/m2
19:47 7.4 °C 5.9 °C 1001.4 hPa SW 11.1 km/h 16.1 km/h 90% 0.8 mm 0 W/m2
19:52 7.4 °C 5.9 °C 1001.4 hPa NW 9.7 km/h 12.9 km/h 90% 0.5 mm 0 W/m2
19:57 7.4 °C 5.9 °C 1001.4 hPa West 4.7 km/h 12.9 km/h 90% 0.5 mm 0 W/m2
20:02 7.3 °C 5.8 °C 1001.4 hPa West 6.4 km/h 11.3 km/h 90% 0.5 mm 0 W/m2
20:07 7.3 °C 5.6 °C 1001.4 hPa NNW 3.2 km/h 9.7 km/h 89% 0.5 mm 0 W/m2
20:12 7.4 °C 5.7 °C 1001.7 hPa WNW 4.7 km/h 8 km/h 89% 0.5 mm 0 W/m2
20:17 7.4 °C 5.7 °C 1001.7 hPa NW 13 km/h 16.1 km/h 89% 0.5 mm 0 W/m2
20:22 7.5 °C 5.8 °C 1002.0 hPa West 16.3 km/h 30.6 km/h 89% 0.5 mm 0 W/m2
20:27 7.5 °C 5.8 °C 1001.7 hPa WNW 7.9 km/h 20.9 km/h 89% 0.2 mm 0 W/m2
20:32 7.5 °C 5.8 °C 1002.0 hPa WSW 3.2 km/h 30.6 km/h 89% 0.2 mm 0 W/m2
20:37 7.5 °C 5.8 °C 1002.0 hPa WNW 7.9 km/h 20.9 km/h 89% 0.2 mm 0 W/m2
20:42 7.6 °C 5.9 °C 1002.4 hPa West 11.1 km/h 17.7 km/h 89% 0.0 mm 0 W/m2
20:47 7.6 °C 5.9 °C 1002.7 hPa SW 6.4 km/h 22.5 km/h 89% 0.0 mm 0 W/m2
20:52 7.6 °C 5.7 °C 1002.7 hPa WNW 16.3 km/h 29 km/h 88% 0.0 mm 0 W/m2
20:57 7.6 °C 5.7 °C 1002.7 hPa WSW 11.1 km/h 16.1 km/h 88% 0.0 mm 0 W/m2
21:02 7.6 °C 5.7 °C 1002.7 hPa West 11.1 km/h 20.9 km/h 88% 0.0 mm 0 W/m2
21:07 7.6 °C 5.6 °C 1003.0 hPa WNW 7.9 km/h 27.4 km/h 87% 0.0 mm 0 W/m2
21:12 7.7 °C 5.7 °C 1003.0 hPa WSW 13 km/h 17.7 km/h 87% 0.0 mm 0 W/m2
21:17 7.7 °C 5.7 °C 1003.0 hPa WNW 4.7 km/h 27.4 km/h 87% 0.0 mm 0 W/m2
21:22 7.6 °C 5.6 °C 1003.4 hPa WNW 9.7 km/h 14.5 km/h 87% 0.2 mm 0 W/m2
21:27 7.6 °C 5.6 °C 1004.1 hPa WNW 14.3 km/h 24.1 km/h 87% 0.2 mm 0 W/m2
21:32 7.4 °C 5.5 °C 1004.1 hPa WNW 22.7 km/h 41.8 km/h 88% 0.5 mm 0 W/m2
21:37 7.2 °C 5.3 °C 1004.1 hPa West 17.7 km/h 20.9 km/h 88% 0.5 mm 0 W/m2
21:42 6.9 °C 5.1 °C 1004.1 hPa West 22.7 km/h 33.8 km/h 88% 0.5 mm 0 W/m2
21:47 6.9 °C 5.1 °C 1004.4 hPa West 30.6 km/h 30.6 km/h 88% 0.5 mm 0 W/m2
21:52 6.9 °C 5.1 °C 1004.4 hPa West 17.7 km/h 33.8 km/h 88% 0.8 mm 0 W/m2
21:57 7 °C 5.1 °C 1004.4 hPa WNW 20.9 km/h 25.7 km/h 88% 0.8 mm 0 W/m2
22:02 6.9 °C 5.1 °C 1004.7 hPa West 14.3 km/h 25.7 km/h 88% 0.8 mm 0 W/m2
22:07 6.9 °C 4.9 °C 1004.7 hPa NW 11.1 km/h 27.4 km/h 87% 0.8 mm 0 W/m2
22:12 6.9 °C 4.9 °C 1005.1 hPa West 9.7 km/h 22.5 km/h 87% 0.8 mm 0 W/m2
22:17 6.8 °C 4.8 °C 1005.4 hPa West 28.8 km/h 29 km/h 87% 0.8 mm 0 W/m2
22:22 6.7 °C 4.9 °C 1005.4 hPa WSW 17.7 km/h 24.1 km/h 88% 0.5 mm 0 W/m2
22:27 6.6 °C 4.8 °C 1005.8 hPa West 13 km/h 29 km/h 88% 0.5 mm 0 W/m2
22:32 6.6 °C 4.8 °C 1005.8 hPa WNW 16.3 km/h 20.9 km/h 88% 0.2 mm 0 W/m2
22:37 6.7 °C 4.9 °C 1005.8 hPa West 22.7 km/h 22.5 km/h 88% 0.2 mm 0 W/m2
22:42 6.6 °C 4.8 °C 1006.1 hPa West 14.3 km/h 19.3 km/h 88% 0.2 mm 0 W/m2
22:47 6.6 °C 4.8 °C 1006.4 hPa West 13 km/h 16.1 km/h 88% 0.2 mm 0 W/m2
22:52 6.6 °C 4.9 °C 1006.4 hPa WSW 13 km/h 22.5 km/h 89% 0.0 mm 0 W/m2
22:57 6.7 °C 5 °C 1006.4 hPa West 13 km/h 30.6 km/h 89% 0.0 mm 0 W/m2
23:03 6.8 °C 5.1 °C 1006.8 hPa WSW 13 km/h 24.1 km/h 89% 0.0 mm 0 W/m2
23:08 6.8 °C 5.1 °C 1006.8 hPa West 14.3 km/h 17.7 km/h 89% 0.0 mm 0 W/m2
23:13 6.9 °C 5.2 °C 1006.8 hPa WNW 13 km/h 24.1 km/h 89% 0.0 mm 0 W/m2
23:18 6.9 °C 5.2 °C 1007.1 hPa West 11.1 km/h 17.7 km/h 89% 0.0 mm 0 W/m2
23:23 6.9 °C 5.2 °C 1007.1 hPa NNW 6.4 km/h 12.9 km/h 89% 0.0 mm 0 W/m2
23:28 7 °C 5.3 °C 1007.5 hPa West 16.3 km/h 19.3 km/h 89% 0.0 mm 0 W/m2
23:33 7.1 °C 5.4 °C 1007.5 hPa NW 14.3 km/h 14.5 km/h 89% 0.0 mm 0 W/m2
23:38 7.1 °C 5.4 °C 1007.5 hPa WSW 13 km/h 19.3 km/h 89% 0.0 mm 0 W/m2
23:43 7.2 °C 5.3 °C 1007.8 hPa NW 14.3 km/h 16.1 km/h 88% 0.0 mm 0 W/m2
23:48 7.2 °C 5.3 °C 1008.1 hPa WNW 6.4 km/h 11.3 km/h 88% 0.0 mm 0 W/m2
23:53 7.2 °C 5.3 °C 1008.1 hPa NW 14.3 km/h 20.9 km/h 88% 0.0 mm 0 W/m2
23:58 7.3 °C 5.4 °C 1008.5 hPa West 9.7 km/h 25.7 km/h 88% 0.0 mm 0 W/m2
Juneau County Weather
Compliments of Weather Underground - 4 mb